Time;durP1;ratioP1;P1;durP2;ratioP2;P2;SDS_P1;SDS_P2;PMS_P1;PMS_P2;Temp;Humidity;BMP_temperature;BMP_pressure;BME280_temperature;BME280_humidity;BME280_pressure;Samples;Min_cycle;Max_cycle;Signal;HPM_P1;HPM_P2
2023/09/27 00:00:10;;;;;;;11.60;10.23;;;14.80;99.90;;;;;;5061624;28;20040;-91
2023/09/27 00:02:40;;;;;;;12.13;10.27;;;15.00;99.90;;;;;;5057168;28;21253;-91
2023/09/27 00:05:07;;;;;;;11.77;10.57;;;15.00;99.90;;;;;;5057402;28;20597;-93
2023/09/27 00:07:34;;;;;;;12.75;11.02;;;15.00;99.90;;;;;;5034721;28;20028;-92
2023/09/27 00:10:01;;;;;;;11.30;10.20;;;15.00;99.90;;;;;;5068552;28;20050;-92
2023/09/27 00:12:28;;;;;;;11.10;9.40;;;15.00;99.90;;;;;;5054686;28;20040;-91
2023/09/27 00:14:55;;;;;;;10.48;9.38;;;15.00;99.90;;;;;;5056697;28;20123;-90
2023/09/27 00:17:22;;;;;;;;;;;15.00;99.90;;;;;;5072025;28;20074;-89
2023/09/27 00:19:47;;;;;;;12.25;9.75;;;15.00;99.90;;;;;;5058642;28;19920;-90
2023/09/27 00:22:13;;;;;;;11.07;9.85;;;15.00;99.90;;;;;;5044657;28;20128;-89
2023/09/27 00:24:39;;;;;;;12.23;10.07;;;15.00;99.90;;;;;;5053769;28;20494;-89
2023/09/27 00:27:05;;;;;;;10.15;9.15;;;15.00;99.90;;;;;;5032735;28;20036;-90
2023/09/27 00:29:31;;;;;;;12.18;10.63;;;15.00;99.90;;;;;;5043566;28;20040;-90
2023/09/27 00:31:57;;;;;;;11.02;9.30;;;15.00;99.90;;;;;;5025128;28;20042;-90
2023/09/27 00:34:23;;;;;;;12.05;10.85;;;15.00;99.90;;;;;;5060080;28;20055;-90
2023/09/27 00:36:49;;;;;;;11.68;10.48;;;15.00;99.90;;;;;;5046171;28;20047;-89
2023/09/27 00:39:15;;;;;;;11.82;10.57;;;15.00;99.90;;;;;;5043959;28;20040;-91
2023/09/27 00:41:40;;;;;;;11.60;10.43;;;15.00;99.90;;;;;;5059785;28;20085;-92
2023/09/27 00:44:06;;;;;;;11.45;10.15;;;15.00;99.90;;;;;;5046315;28;20042;-90
2023/09/27 00:46:33;;;;;;;10.95;9.85;;;14.90;99.90;;;;;;5047107;28;20085;-90
2023/09/27 00:48:58;;;;;;;12.15;10.93;;;14.90;99.90;;;;;;5060254;28;20121;-91
2023/09/27 00:51:25;;;;;;;12.18;10.88;;;14.90;99.90;;;;;;5046668;28;20083;-92
2023/09/27 00:53:52;;;;;;;11.77;10.57;;;14.90;99.90;;;;;;5072168;28;20044;-91
2023/09/27 00:56:18;;;;;;;11.88;10.40;;;14.90;99.90;;;;;;5042200;28;20115;-92
2023/09/27 00:58:44;;;;;;;12.82;10.90;;;14.90;99.90;;;;;;5041173;28;20669;-91
2023/09/27 01:01:11;;;;;;;12.07;10.88;;;14.80;99.90;;;;;;5044541;28;20595;-91
2023/09/27 01:03:37;;;;;;;12.75;11.48;;;14.80;99.90;;;;;;5042761;28;20118;-91
2023/09/27 01:06:03;;;;;;;13.15;11.88;;;14.80;99.90;;;;;;5073293;28;20617;-91
2023/09/27 01:08:29;;;;;;;11.98;10.80;;;14.80;99.90;;;;;;5060862;28;20118;-92
2023/09/27 01:10:55;;;;;;;12.63;11.20;;;14.80;99.90;;;;;;5042418;28;20039;-91
2023/09/27 01:13:21;;;;;;;13.43;11.18;;;14.80;99.90;;;;;;5045465;28;20048;-93
2023/09/27 01:15:48;;;;;;;13.25;11.60;;;14.80;99.90;;;;;;5039122;28;20130;-91
2023/09/27 01:18:13;;;;;;;11.97;10.77;;;14.80;99.90;;;;;;5049183;28;20122;-91
2023/09/27 01:20:39;;;;;;;13.13;11.82;;;14.80;99.90;;;;;;5023456;28;20585;-91
2023/09/27 01:23:06;;;;;;;12.75;11.55;;;14.80;99.90;;;;;;5040050;28;20097;-89
2023/09/27 01:25:37;;;;;;;13.30;11.93;;;14.80;99.90;;;;;;5058375;28;20120;-90
2023/09/27 01:28:08;;;;;;;14.10;12.05;;;14.80;99.90;;;;;;5056434;28;20042;-92
2023/09/27 01:30:35;;;;;;;13.32;11.23;;;14.70;99.90;;;;;;5056032;28;20040;-91
2023/09/27 01:33:11;;;;;;;13.00;11.60;;;14.70;99.90;;;;;;5039134;28;20047;-89
2023/09/27 01:35:39;;;;;;;14.68;11.80;;;14.70;99.90;;;;;;5043997;28;20031;-91
2023/09/27 01:38:07;;;;;;;12.93;11.55;;;14.70;99.90;;;;;;5043325;28;20514;-92
2023/09/27 01:40:37;;;;;;;12.65;10.95;;;14.70;99.90;;;;;;5040262;28;20109;-91
2023/09/27 01:43:04;;;;;;;13.35;12.02;;;14.70;99.90;;;;;;5058053;28;20043;-91
2023/09/27 01:45:30;;;;;;;13.32;11.93;;;14.70;99.90;;;;;;5044545;28;20039;-90
2023/09/27 01:48:01;;;;;;;14.75;12.55;;;14.70;99.90;;;;;;5049069;28;20046;-91
2023/09/27 01:50:29;;;;;;;13.18;11.88;;;14.60;99.90;;;;;;5061718;28;20343;-91
2023/09/27 01:52:56;;;;;;;13.93;12.43;;;14.60;99.90;;;;;;5064832;28;20047;-91
2023/09/27 01:55:23;;;;;;;13.25;11.95;;;14.60;99.90;;;;;;5053224;28;20031;-91
2023/09/27 01:57:49;;;;;;;13.43;11.88;;;14.60;99.90;;;;;;5062394;28;20040;-91
2023/09/27 02:00:16;;;;;;;14.23;12.82;;;14.60;99.90;;;;;;5040649;28;20076;-91
2023/09/27 02:02:50;;;;;;;14.65;12.02;;;14.60;99.90;;;;;;5058351;28;20052;-91
2023/09/27 02:05:16;;;;;;;13.98;12.45;;;14.60;99.90;;;;;;5064431;28;20032;-91
2023/09/27 02:07:42;;;;;;;13.25;11.95;;;14.50;99.90;;;;;;5064979;28;20120;-90
2023/09/27 02:10:10;;;;;;;13.30;12.00;;;14.50;99.90;;;;;;5038161;28;20089;-91
2023/09/27 02:12:36;;;;;;;14.48;12.30;;;14.60;99.90;;;;;;5043281;28;20112;-90
2023/09/27 02:15:04;;;;;;;12.70;11.55;;;14.50;99.90;;;;;;5038512;28;20127;-91
2023/09/27 02:17:29;;;;;;;14.57;12.05;;;14.50;99.90;;;;;;5038781;28;20483;-90
2023/09/27 02:19:55;;;;;;;13.45;12.00;;;14.50;99.90;;;;;;5075315;28;20032;-90
2023/09/27 02:22:22;;;;;;;14.02;12.63;;;14.40;99.90;;;;;;5041648;28;20046;-91
2023/09/27 02:24:48;;;;;;;13.65;12.07;;;14.40;99.90;;;;;;5064507;28;20032;-91
2023/09/27 02:27:14;;;;;;;13.13;11.68;;;14.40;99.90;;;;;;5058021;28;20040;-89
2023/09/27 02:29:42;;;;;;;14.40;12.63;;;14.40;99.90;;;;;;5076163;28;20040;-91
2023/09/27 02:32:07;;;;;;;;;;;14.40;99.90;;;;;;5051857;28;20374;-90
2023/09/27 02:34:34;;;;;;;13.25;11.95;;;14.30;99.90;;;;;;5055934;28;19973;-91
2023/09/27 02:37:00;;;;;;;14.05;12.50;;;14.30;99.90;;;;;;5057283;28;20594;-91
2023/09/27 02:39:26;;;;;;;13.20;11.90;;;14.30;99.90;;;;;;5040870;28;20257;-91
2023/09/27 02:41:52;;;;;;;15.50;12.95;;;14.30;99.90;;;;;;5065973;28;20094;-90
2023/09/27 02:44:18;;;;;;;14.15;12.65;;;14.30;99.90;;;;;;5061544;28;20093;-91
2023/09/27 02:46:44;;;;;;;14.60;13.18;;;14.30;99.90;;;;;;5044799;28;20032;-90
2023/09/27 02:49:10;;;;;;;16.38;13.45;;;14.30;99.90;;;;;;5036209;28;20051;-90
2023/09/27 02:51:37;;;;;;;13.43;12.05;;;14.30;99.90;;;;;;5059354;28;20056;-90
2023/09/27 02:54:04;;;;;;;13.30;11.88;;;14.20;99.90;;;;;;5054304;28;20045;-90
2023/09/27 02:56:30;;;;;;;13.98;12.55;;;14.20;99.90;;;;;;5053541;28;20126;-91
2023/09/27 02:58:56;;;;;;;13.48;12.18;;;14.20;99.90;;;;;;5039095;28;20067;-91
2023/09/27 03:01:22;;;;;;;14.60;12.95;;;14.20;99.90;;;;;;5021370;28;20036;-90
2023/09/27 03:03:47;;;;;;;14.88;13.27;;;14.20;99.90;;;;;;5038733;28;20029;-90
2023/09/27 03:06:14;;;;;;;14.85;12.93;;;14.20;99.90;;;;;;5038759;28;20038;-91
2023/09/27 03:08:43;;;;;;;16.17;13.68;;;14.20;99.90;;;;;;5070326;28;20039;-90
2023/09/27 03:11:09;;;;;;;17.20;13.35;;;13.80;99.90;;;;;;5072023;28;20075;-90
2023/09/27 03:13:38;;;;;;;14.05;12.55;;;14.20;99.90;;;;;;5088599;28;20050;-90
2023/09/27 03:16:04;;;;;;;14.20;12.77;;;14.10;99.90;;;;;;5052893;28;20091;-91
2023/09/27 03:18:33;;;;;;;15.30;12.90;;;14.10;99.90;;;;;;5064602;28;20048;-91
2023/09/27 03:20:59;;;;;;;14.57;13.07;;;14.00;99.90;;;;;;5056161;28;20044;-91
2023/09/27 03:23:28;;;;;;;20.55;13.02;;;14.10;99.90;;;;;;5056972;28;20094;-91
2023/09/27 03:25:55;;;;;;;16.50;12.70;;;14.00;99.90;;;;;;5048309;28;20032;-90
2023/09/27 03:28:21;;;;;;;;;;;14.00;99.90;;;;;;5051675;28;20532;-91
2023/09/27 03:30:47;;;;;;;14.82;13.27;;;14.00;99.90;;;;;;5052404;28;19916;-91
2023/09/27 03:33:13;;;;;;;15.75;14.20;;;13.90;99.90;;;;;;5020593;28;20483;-91
2023/09/27 03:35:39;;;;;;;13.82;12.43;;;13.90;99.90;;;;;;5048112;28;20040;-92
2023/09/27 03:38:05;;;;;;;15.10;13.48;;;13.90;99.90;;;;;;5032674;28;20043;-92
2023/09/27 03:40:31;;;;;;;14.95;13.45;;;13.80;99.90;;;;;;5051373;28;20047;-92
2023/09/27 03:42:57;;;;;;;15.45;13.95;;;13.90;99.90;;;;;;5057343;28;20040;-91
2023/09/27 03:45:23;;;;;;;15.30;13.15;;;13.90;99.90;;;;;;5056432;28;20032;-92
2023/09/27 03:47:49;;;;;;;15.77;13.93;;;13.90;99.90;;;;;;5073231;28;20493;-91
2023/09/27 03:50:15;;;;;;;14.90;13.43;;;13.90;99.90;;;;;;5042993;28;20060;-91
2023/09/27 03:52:42;;;;;;;16.08;14.48;;;13.90;99.90;;;;;;5036830;28;20048;-91
2023/09/27 03:55:11;;;;;;;14.90;13.40;;;13.80;99.90;;;;;;5061238;28;20047;-91
2023/09/27 03:57:39;;;;;;;15.60;14.00;;;13.90;99.90;;;;;;5057317;28;20040;-90
2023/09/27 04:00:13;;;;;;;16.13;14.02;;;13.80;99.90;;;;;;5044455;28;20082;-89
2023/09/27 04:02:40;;;;;;;15.15;13.52;;;13.90;99.90;;;;;;5040473;28;20043;-90
2023/09/27 04:05:06;;;;;;;15.93;14.32;;;13.90;99.90;;;;;;5061876;28;20037;-91
2023/09/27 04:07:32;;;;;;;15.15;13.63;;;13.90;99.90;;;;;;5044619;28;20122;-90
2023/09/27 04:09:58;;;;;;;16.02;12.85;;;13.80;99.90;;;;;;5074057;28;20144;-90
2023/09/27 04:12:26;;;;;;;16.23;13.68;;;13.80;99.90;;;;;;5041975;28;20044;-90
2023/09/27 04:14:52;;;;;;;14.20;12.73;;;13.80;99.90;;;;;;5077180;28;20043;-91
2023/09/27 04:17:18;;;;;;;14.80;13.38;;;13.80;99.90;;;;;;5042667;28;20109;-91
2023/09/27 04:19:43;;;;;;;15.38;13.88;;;13.80;99.90;;;;;;5061081;28;20048;-90
2023/09/27 04:22:09;;;;;;;15.45;13.95;;;13.80;99.90;;;;;;5043926;28;20417;-91
2023/09/27 04:24:36;;;;;;;15.48;13.77;;;13.80;99.90;;;;;;5060528;28;20046;-90
2023/09/27 04:27:03;;;;;;;16.05;14.35;;;13.70;99.90;;;;;;5072250;28;20121;-89
2023/09/27 04:29:30;;;;;;;16.83;14.48;;;13.70;99.90;;;;;;5059416;28;20040;-90
2023/09/27 04:31:56;;;;;;;16.05;14.35;;;13.60;99.90;;;;;;5076223;28;20380;-90
2023/09/27 04:34:23;;;;;;;15.30;13.73;;;13.60;99.90;;;;;;5043042;28;20404;-89
2023/09/27 04:36:50;;;;;;;15.40;13.80;;;13.60;99.90;;;;;;5044706;28;20458;-90
2023/09/27 04:39:18;;;;;;;16.17;14.55;;;13.60;99.90;;;;;;5059671;28;20490;-89
2023/09/27 04:41:46;;;;;;;16.63;14.82;;;13.60;99.90;;;;;;5059998;28;20043;-90
2023/09/27 04:44:13;;;;;;;18.20;15.32;;;13.60;99.90;;;;;;5059719;28;20115;-90
2023/09/27 04:46:38;;;;;;;17.58;15.02;;;13.60;99.90;;;;;;5058635;28;20124;-91
2023/09/27 04:49:04;;;;;;;19.33;14.75;;;13.60;99.90;;;;;;5064167;28;20043;-91
2023/09/27 04:51:30;;;;;;;18.85;15.38;;;13.60;99.90;;;;;;5041737;28;20064;-91
2023/09/27 04:54:00;;;;;;;19.13;14.82;;;13.60;99.90;;;;;;5057542;28;20141;-91
2023/09/27 04:56:27;;;;;;;16.35;14.63;;;13.60;99.90;;;;;;5039827;28;20281;-91
2023/09/27 04:58:53;;;;;;;16.63;14.80;;;13.60;99.90;;;;;;5059286;28;20047;-91
2023/09/27 05:01:19;;;;;;;17.33;15.60;;;13.60;99.90;;;;;;5058674;28;20044;-91
2023/09/27 05:03:45;;;;;;;19.42;15.95;;;13.60;99.90;;;;;;5055984;28;20488;-91
2023/09/27 05:06:11;;;;;;;18.70;16.65;;;13.60;99.90;;;;;;5060225;28;20051;-90
2023/09/27 05:08:36;;;;;;;19.30;16.08;;;13.60;99.90;;;;;;5043133;28;20062;-90
2023/09/27 05:11:02;;;;;;;16.92;15.15;;;13.60;99.90;;;;;;5039588;28;20047;-90
2023/09/27 05:13:28;;;;;;;16.35;14.73;;;13.50;99.90;;;;;;5022304;28;20040;-90
2023/09/27 05:15:53;;;;;;;17.75;15.95;;;13.60;99.90;;;;;;5034027;28;20044;-92
2023/09/27 05:18:22;;;;;;;17.60;15.65;;;13.50;99.90;;;;;;5059868;28;20051;-92
2023/09/27 05:20:48;;;;;;;17.83;16.02;;;13.50;99.90;;;;;;5060684;28;20072;-91
2023/09/27 05:23:14;;;;;;;20.30;17.55;;;13.50;99.90;;;;;;5042638;28;20067;-90
2023/09/27 05:25:40;;;;;;;17.90;16.08;;;13.50;99.90;;;;;;5042722;28;20047;-90
2023/09/27 05:28:06;;;;;;;18.60;16.05;;;13.40;99.90;;;;;;5042310;28;20043;-90
2023/09/27 05:30:32;;;;;;;18.02;16.15;;;13.50;99.90;;;;;;5043560;28;20036;-90
2023/09/27 05:32:57;;;;;;;19.45;16.58;;;13.40;99.90;;;;;;5059037;28;20662;-91
2023/09/27 05:35:24;;;;;;;18.40;16.50;;;13.40;99.90;;;;;;5038081;28;20068;-90
2023/09/27 05:37:50;;;;;;;19.52;16.63;;;13.50;99.90;;;;;;5057512;28;20051;-91
2023/09/27 05:40:16;;;;;;;19.15;15.90;;;13.50;99.90;;;;;;5059804;28;20058;-92
2023/09/27 05:42:42;;;;;;;16.83;15.13;;;13.50;99.90;;;;;;5043869;28;20028;-93
2023/09/27 05:48:34;;;;;;;18.02;15.77;;;13.50;99.90;;;;;;5052210;28;20046;-89
2023/09/27 05:51:03;;;;;;;18.38;16.42;;;13.00;99.90;;;;;;5003416;28;20064;-90
2023/09/27 05:53:29;;;;;;;18.48;16.67;;;13.60;99.90;;;;;;4998164;28;20133;-92
2023/09/27 05:55:55;;;;;;;18.90;17.00;;;13.70;99.90;;;;;;4971931;28;20121;-94
2023/09/27 05:58:21;;;;;;;18.52;16.63;;;13.40;99.90;;;;;;4997453;28;20523;-94
2023/09/27 06:00:48;;;;;;;22.83;17.13;;;13.70;99.90;;;;;;5011428;28;20477;-91
2023/09/27 06:03:14;;;;;;;23.65;18.52;;;13.70;99.90;;;;;;5006063;28;20045;-91
2023/09/27 06:05:40;;;;;;;19.80;17.25;;;13.80;99.90;;;;;;4996813;28;20037;-91
2023/09/27 06:08:05;;;;;;;19.02;17.02;;;13.80;99.90;;;;;;4981770;28;20045;-91
2023/09/27 06:10:31;;;;;;;20.27;18.17;;;13.90;99.90;;;;;;4996398;28;20041;-91
2023/09/27 06:12:57;;;;;;;20.33;17.00;;;13.90;99.90;;;;;;4978439;28;20096;-90
2023/09/27 06:15:23;;;;;;;19.85;17.95;;;13.90;99.90;;;;;;4998152;28;20112;-92
2023/09/27 06:17:48;;;;;;;19.40;17.33;;;13.90;99.90;;;;;;5018062;28;20052;-91
2023/09/27 06:20:22;;;;;;;18.75;16.88;;;13.90;99.90;;;;;;5003796;28;20090;-90
2023/09/27 06:22:49;;;;;;;20.42;18.35;;;13.90;99.90;;;;;;5039348;28;20062;-90
2023/09/27 06:25:18;;;;;;;22.23;19.17;;;13.90;99.90;;;;;;5035689;28;20075;-91
2023/09/27 06:27:44;;;;;;;19.95;18.05;;;13.90;99.90;;;;;;5004279;28;20131;-91
2023/09/27 06:30:12;;;;;;;21.03;18.80;;;14.00;99.90;;;;;;5048245;28;20064;-91
2023/09/27 06:32:37;;;;;;;;;;;14.00;99.90;;;;;;5017587;28;20041;-90
2023/09/27 06:35:12;;;;;;;20.77;18.10;;;14.00;99.90;;;;;;5054819;28;20429;-91
2023/09/27 06:37:43;;;;;;;19.90;17.77;;;14.10;99.90;;;;;;5023691;28;20048;-91
2023/09/27 06:40:16;;;;;;;20.80;18.70;;;14.10;99.90;;;;;;5052239;28;20430;-90
2023/09/27 06:42:46;;;;;;;20.80;18.60;;;14.10;99.90;;;;;;5019527;28;20040;-91
2023/09/27 06:45:13;;;;;;;21.73;18.45;;;14.20;99.90;;;;;;5038619;28;20047;-91
2023/09/27 06:47:41;;;;;;;19.80;17.77;;;14.20;99.90;;;;;;5029331;28;20040;-90
2023/09/27 06:50:10;;;;;;;20.73;18.42;;;14.20;99.90;;;;;;5020219;28;20450;-90
2023/09/27 06:52:39;;;;;;;19.73;17.63;;;14.20;99.90;;;;;;5048162;28;20044;-89
2023/09/27 06:55:19;;;;;;;19.05;17.23;;;14.30;99.90;;;;;;5032481;28;20554;-89
2023/09/27 06:57:47;;;;;;;20.88;18.10;;;14.40;99.90;;;;;;5053417;28;20040;-91
2023/09/27 07:00:23;;;;;;;18.40;16.50;;;14.40;99.90;;;;;;5055281;28;20097;-90
2023/09/27 07:02:50;;;;;;;20.65;18.65;;;14.60;99.90;;;;;;5042636;28;20051;-90
2023/09/27 07:05:17;;;;;;;19.38;17.48;;;14.70;99.90;;;;;;5052140;28;20494;-90
2023/09/27 07:07:43;;;;;;;18.85;17.05;;;15.00;99.90;;;;;;5076910;28;20028;-90
2023/09/27 07:10:09;;;;;;;19.75;17.75;;;15.10;99.90;;;;;;5065572;28;20043;-90
2023/09/27 07:13:22;;;;;;;19.60;17.55;;;15.30;99.90;;;;;;5045087;28;20066;-92
2023/09/27 07:15:49;;;;;;;19.08;17.20;;;14.80;99.90;;;;;;4992218;28;20548;-92
2023/09/27 07:18:14;;;;;;;19.30;17.30;;;15.40;99.90;;;;;;5018464;28;20032;-92
2023/09/27 07:20:41;;;;;;;19.13;17.23;;;15.50;99.90;;;;;;5058180;28;20035;-94
2023/09/27 07:23:08;;;;;;;19.73;17.85;;;15.50;99.90;;;;;;5055874;28;20057;-93
2023/09/27 07:25:37;;;;;;;19.20;17.17;;;14.90;99.90;;;;;;5055991;28;20046;-94
2023/09/27 07:28:07;;;;;;;18.73;16.83;;;15.70;99.90;;;;;;5057744;28;20036;-91
2023/09/27 07:30:35;;;;;;;19.90;17.77;;;15.80;99.90;;;;;;5036503;28;20092;-95
2023/09/27 07:33:09;;;;;;;19.65;17.55;;;16.00;99.90;;;;;;5046520;28;20036;-93
2023/09/27 07:35:38;;;;;;;19.38;17.35;;;16.10;99.90;;;;;;5027075;28;20059;-92
2023/09/27 07:38:04;;;;;;;18.42;16.55;;;16.30;99.90;;;;;;5019743;28;20186;-95
2023/09/27 07:40:30;;;;;;;19.25;17.27;;;16.40;99.90;;;;;;5036280;28;20075;-93
2023/09/27 07:42:56;;;;;;;18.65;16.77;;;16.40;99.90;;;;;;5025360;28;20040;-95
2023/09/27 07:45:22;;;;;;;18.50;16.50;;;16.30;99.90;;;;;;5041059;28;20038;-92
2023/09/27 07:47:53;;;;;;;18.80;16.80;;;16.30;99.90;;;;;;5035641;28;20062;-93
2023/09/27 07:50:33;;;;;;;17.85;16.20;;;16.30;99.90;;;;;;5057379;28;20036;-92
2023/09/27 07:53:03;;;;;;;19.35;17.17;;;16.30;99.90;;;;;;5043898;28;20687;-93
2023/09/27 07:55:33;;;;;;;19.15;17.15;;;16.40;99.90;;;;;;5052113;28;20044;-93
2023/09/27 07:57:59;;;;;;;18.00;16.02;;;16.50;99.90;;;;;;5052153;28;20052;-93
2023/09/27 08:00:31;;;;;;;19.05;17.05;;;16.60;99.90;;;;;;5043064;28;20078;-92
2023/09/27 08:02:58;;;;;;;18.80;16.92;;;16.70;99.90;;;;;;5041885;28;20075;-94
2023/09/27 08:05:24;;;;;;;17.83;16.13;;;16.90;99.90;;;;;;5025943;28;20076;-93
2023/09/27 08:07:53;;;;;;;18.92;17.13;;;17.40;99.90;;;;;;5039537;28;20068;-93
2023/09/27 08:10:19;;;;;;;17.40;15.80;;;18.00;99.90;;;;;;5054903;28;20044;-90
2023/09/27 08:12:45;;;;;;;17.67;15.98;;;18.30;99.90;;;;;;5040813;28;20048;-92
2023/09/27 08:15:12;;;;;;;17.05;15.27;;;18.60;99.90;;;;;;5037684;28;20067;-92
2023/09/27 08:17:38;;;;;;;17.38;15.55;;;18.80;99.90;;;;;;5054066;28;20097;-91
2023/09/27 08:20:09;;;;;;;16.27;14.77;;;18.80;99.90;;;;;;5060658;28;20768;-93
2023/09/27 08:22:36;;;;;;;15.77;14.25;;;19.60;99.90;;;;;;5057441;28;20100;-93
2023/09/27 08:25:04;;;;;;;16.40;14.73;;;20.00;99.90;;;;;;5071276;28;20032;-90
2023/09/27 08:27:30;;;;;;;15.90;14.20;;;20.10;99.90;;;;;;5041435;28;20048;-93
2023/09/27 08:29:56;;;;;;;14.45;13.00;;;20.20;99.90;;;;;;5061043;28;20047;-90
2023/09/27 08:32:22;;;;;;;13.52;12.23;;;20.30;99.90;;;;;;5040131;28;20040;-92
2023/09/27 08:34:48;;;;;;;15.73;13.02;;;20.20;99.90;;;;;;5035819;28;20044;-92
2023/09/27 08:37:14;;;;;;;13.60;12.10;;;20.00;99.90;;;;;;5020462;28;20093;-92
2023/09/27 08:39:41;;;;;;;13.77;12.27;;;20.00;99.90;;;;;;5063162;28;20444;-90
2023/09/27 08:42:07;;;;;;;14.63;13.32;;;20.10;99.90;;;;;;5069275;28;20043;-90
2023/09/27 08:44:34;;;;;;;15.65;12.75;;;19.90;99.90;;;;;;5046252;28;20036;-91
2023/09/27 08:47:00;;;;;;;12.75;11.55;;;19.90;99.90;;;;;;5026674;28;20048;-91
2023/09/27 08:49:26;;;;;;;13.00;11.63;;;20.00;99.90;;;;;;5058143;28;20040;-89
2023/09/27 08:51:53;;;;;;;14.00;12.45;;;20.00;99.90;;;;;;5026803;28;20216;-90
2023/09/27 08:54:21;;;;;;;13.20;11.60;;;20.10;99.90;;;;;;5061066;28;20127;-90
2023/09/27 08:56:50;;;;;;;13.23;11.93;;;20.10;99.90;;;;;;5044653;28;20048;-93
2023/09/27 08:59:18;;;;;;;12.18;10.95;;;20.10;99.90;;;;;;5043119;28;20055;-92
2023/09/27 09:01:44;;;;;;;13.20;11.48;;;20.30;99.90;;;;;;5043206;28;20062;-92
2023/09/27 09:04:13;;;;;;;12.95;11.65;;;20.40;99.90;;;;;;5044279;28;20497;-91
2023/09/27 09:06:40;;;;;;;12.32;10.98;;;20.60;99.90;;;;;;5059268;28;20042;-92
2023/09/27 09:09:10;;;;;;;11.10;10.00;;;20.70;99.90;;;;;;5050284;28;20090;-91
2023/09/27 09:11:47;;;;;;;12.48;11.27;;;20.80;99.90;;;;;;5054284;28;20040;-89
2023/09/27 09:14:21;;;;;;;11.63;10.53;;;20.90;99.90;;;;;;5059614;28;20059;-90
2023/09/27 09:16:54;;;;;;;13.02;10.55;;;20.80;99.90;;;;;;5062399;28;20036;-89
2023/09/27 09:19:24;;;;;;;10.60;9.50;;;20.80;99.90;;;;;;5050490;28;20052;-89
2023/09/27 09:22:11;;;;;;;11.00;9.68;;;21.00;99.90;;;;;;5075532;28;20067;-88
2023/09/27 09:24:41;;;;;;;10.65;9.48;;;21.10;99.90;;;;;;5039403;28;20075;-89
2023/09/27 09:27:12;;;;;;;11.57;9.32;;;21.20;99.90;;;;;;5058274;28;20043;-89
2023/09/27 09:29:48;;;;;;;11.32;9.70;;;21.30;99.90;;;;;;5052449;28;20036;-89
2023/09/27 09:32:18;;;;;;;11.43;9.23;;;21.30;99.90;;;;;;5089441;28;20047;-92
2023/09/27 09:34:49;;;;;;;12.75;9.05;;;21.20;99.90;;;;;;5043923;28;20582;-92
2023/09/27 09:37:20;;;;;;;9.60;8.48;;;21.30;99.90;;;;;;5055086;28;20663;-93
2023/09/27 09:39:47;;;;;;;9.98;7.97;;;21.40;99.90;;;;;;5044233;28;20055;-93
2023/09/27 09:42:29;;;;;;;11.32;8.45;;;21.40;99.90;;;;;;5049608;28;20037;-91
2023/09/27 09:45:08;;;;;;;9.77;7.53;;;21.50;99.90;;;;;;5043750;28;20519;-92
2023/09/27 09:47:37;;;;;;;12.25;7.68;;;21.60;99.90;;;;;;5057290;28;20398;-90
2023/09/27 09:50:08;;;;;;;11.20;7.60;;;21.70;99.90;;;;;;5059325;28;20493;-91
2023/09/27 09:52:39;;;;;;;8.15;6.63;;;21.70;99.90;;;;;;5059009;28;20062;-89
2023/09/27 09:55:11;;;;;;;10.48;6.95;;;21.70;99.90;;;;;;5092553;28;20513;-90
2023/09/27 09:57:41;;;;;;;9.20;6.53;;;21.70;99.90;;;;;;5057703;28;20044;-93
2023/09/27 10:00:12;;;;;;;10.23;6.40;;;21.70;99.90;;;;;;5058089;28;20036;-89
2023/09/27 10:02:50;;;;;;;10.13;7.47;;;21.70;99.90;;;;;;5058191;28;20036;-92
2023/09/27 10:05:21;;;;;;;8.50;5.97;;;21.70;99.90;;;;;;5085452;28;20043;-92
2023/09/27 10:07:48;;;;;;;7.57;5.30;;;21.60;99.90;;;;;;5042702;28;20395;-90
2023/09/27 10:10:20;;;;;;;6.35;5.05;;;21.60;99.90;;;;;;5062953;28;20040;-90
2023/09/27 10:12:49;;;;;;;7.07;4.00;;;21.50;99.90;;;;;;5052056;28;20035;-88
2023/09/27 10:15:20;;;;;;;5.47;3.30;;;21.40;99.90;;;;;;5061493;28;20047;-90
2023/09/27 10:17:46;;;;;;;7.30;4.75;;;21.40;99.90;;;;;;5103023;27;20429;-90
2023/09/27 10:20:14;;;;;;;6.30;4.28;;;21.40;99.90;;;;;;5072139;28;20054;-91
2023/09/27 10:22:40;;;;;;;6.15;4.45;;;21.40;99.90;;;;;;5047604;28;20036;-92
2023/09/27 10:25:32;;;;;;;8.68;5.07;;;21.40;99.90;;;;;;5041603;28;20123;-92
2023/09/27 10:28:01;;;;;;;5.55;4.00;;;21.50;99.90;;;;;;5039977;28;20559;-92
2023/09/27 10:30:48;;;;;;;6.25;2.88;;;21.60;99.90;;;;;;5046053;28;20033;-89
2023/09/27 10:33:17;;;;;;;4.43;2.65;;;21.70;99.90;;;;;;5053915;28;20131;-91
2023/09/27 10:35:44;;;;;;;4.95;2.70;;;21.70;99.90;;;;;;5055646;28;20113;-91
2023/09/27 10:38:10;;;;;;;4.97;2.80;;;21.70;99.90;;;;;;5090507;28;20082;-90
2023/09/27 10:40:46;;;;;;;3.58;2.50;;;21.60;99.90;;;;;;5042428;28;20032;-93
2023/09/27 10:43:35;;;;;;;6.68;3.25;;;21.50;99.90;;;;;;5073960;28;20036;-92
2023/09/27 10:46:04;;;;;;;5.85;3.33;;;21.40;99.90;;;;;;5091135;28;20036;-88
2023/09/27 10:48:42;;;;;;;6.65;3.60;;;21.30;99.90;;;;;;5040609;28;20036;-91
2023/09/27 10:51:08;;;;;;;4.93;3.17;;;21.30;99.90;;;;;;5044192;28;20036;-87
2023/09/27 10:53:34;;;;;;;6.00;3.33;;;21.10;99.90;;;;;;5054853;28;20094;-91
2023/09/27 10:56:00;;;;;;;5.88;3.28;;;21.10;99.90;;;;;;5039318;28;20052;-91
2023/09/27 10:58:26;;;;;;;5.10;3.25;;;21.10;99.90;;;;;;5052604;28;20036;-88
2023/09/27 11:00:57;;;;;;;7.43;3.63;;;21.10;99.90;;;;;;5058318;28;20063;-88
2023/09/27 11:03:41;;;;;;;4.78;3.15;;;21.10;99.90;;;;;;5050438;28;20040;-89
2023/09/27 11:06:16;;;;;;;5.03;3.47;;;21.10;99.90;;;;;;5042937;28;20040;-89
2023/09/27 11:08:42;;;;;;;4.82;2.70;;;21.00;99.90;;;;;;5091383;28;20360;-91
2023/09/27 11:11:11;;;;;;;5.13;3.25;;;21.00;99.90;;;;;;5057688;28;20043;-88
2023/09/27 11:13:44;;;;;;;7.65;3.40;;;21.00;99.90;;;;;;5060020;28;20124;-93
2023/09/27 11:16:14;;;;;;;5.00;2.88;;;21.50;99.90;;;;;;5054989;28;20093;-95
2023/09/27 11:18:44;;;;;;;4.43;3.03;;;21.00;99.90;;;;;;5076618;28;20922;-93
2023/09/27 11:21:11;;;;;;;5.68;3.35;;;21.00;99.90;;;;;;5044713;28;20596;-91
2023/09/27 11:24:06;;;;;;;6.28;3.97;;;21.00;99.90;;;;;;5058759;28;20032;-87
2023/09/27 11:26:33;;;;;;;5.55;3.60;;;20.90;99.90;;;;;;5040264;28;20028;-89
2023/09/27 11:29:00;;;;;;;;;;;20.90;99.90;;;;;;5058648;28;20090;-90
2023/09/27 11:31:38;;;;;;;4.13;2.97;;;20.80;99.90;;;;;;5041007;28;20592;-89
2023/09/27 11:34:18;;;;;;;5.90;3.20;;;20.80;99.90;;;;;;5087382;28;20045;-91
2023/09/27 11:36:44;;;;;;;7.65;3.22;;;20.80;99.90;;;;;;5068015;28;20483;-89
2023/09/27 11:39:14;;;;;;;5.05;3.55;;;20.90;99.90;;;;;;5053580;28;20040;-90
2023/09/27 11:41:43;;;;;;;4.40;3.53;;;20.80;99.90;;;;;;5055460;28;20055;-92
2023/09/27 11:44:20;;;;;;;6.70;3.78;;;20.80;99.90;;;;;;5023609;28;20384;-92
2023/09/27 11:47:24;;;;;;;6.72;4.32;;;20.80;99.90;;;;;;5065314;28;20094;-91
2023/09/27 11:50:02;;;;;;;6.03;3.38;;;20.80;99.90;;;;;;5054131;28;20123;-91
2023/09/27 11:52:28;;;;;;;7.93;3.80;;;20.80;99.90;;;;;;5050773;28;20031;-90
2023/09/27 11:54:53;;;;;;;6.78;3.58;;;20.60;99.90;;;;;;5040631;28;20435;-91
2023/09/27 11:57:19;;;;;;;8.07;3.92;;;20.80;99.90;;;;;;5071799;28;20669;-89
2023/09/27 11:59:45;;;;;;;5.97;3.60;;;20.90;99.90;;;;;;5057289;28;20043;-91
2023/09/27 12:02:11;;;;;;;8.68;4.45;;;20.80;99.90;;;;;;5054689;28;20094;-91
2023/09/27 12:04:37;;;;;;;6.20;4.38;;;20.90;99.90;;;;;;5044275;28;20428;-91
2023/09/27 12:07:02;;;;;;;7.53;4.60;;;21.00;99.90;;;;;;5023525;28;20037;-92
2023/09/27 12:09:28;;;;;;;6.22;4.25;;;21.00;99.90;;;;;;5067719;28;20428;-91
2023/09/27 12:11:55;;;;;;;6.93;4.35;;;21.10;99.90;;;;;;5055169;28;20078;-93
2023/09/27 12:14:20;;;;;;;5.72;4.78;;;21.10;99.90;;;;;;5016055;28;20072;-92
2023/09/27 12:16:46;;;;;;;9.10;4.80;;;21.10;99.90;;;;;;5061897;28;20395;-92
2023/09/27 12:19:12;;;;;;;7.22;5.28;;;21.20;99.90;;;;;;5032699;28;20047;-91
2023/09/27 12:21:38;;;;;;;6.82;4.93;;;21.30;99.90;;;;;;5048922;28;20101;-92
2023/09/27 12:24:05;;;;;;;8.57;5.70;;;21.40;99.90;;;;;;5045967;28;20040;-89
2023/09/27 12:26:33;;;;;;;6.32;5.65;;;21.50;99.90;;;;;;5076729;28;20028;-92
2023/09/27 12:28:59;;;;;;;8.38;5.35;;;21.60;99.90;;;;;;5044497;28;20127;-90
2023/09/27 12:31:24;;;;;;;6.90;5.25;;;21.80;99.90;;;;;;5032125;28;20066;-90
2023/09/27 12:33:50;;;;;;;7.55;5.90;;;22.00;99.90;;;;;;5036370;28;20048;-93
2023/09/27 12:36:16;;;;;;;7.33;5.83;;;22.20;99.90;;;;;;5044599;28;20040;-90
2023/09/27 12:38:42;;;;;;;9.30;6.18;;;22.30;99.90;;;;;;5044219;28;20380;-90
2023/09/27 12:41:08;;;;;;;7.70;6.28;;;22.30;99.90;;;;;;5046117;28;20108;-90